sensor_id;sensor_type;location;lat;lon;timestamp;temperature;humidity
2625;DHT22;1322;53.256;10.386;2024-03-23T00:55:37;9.80;99.90
2625;DHT22;1322;53.256;10.386;2024-03-23T00:58:02;9.80;99.90
2625;DHT22;1322;53.256;10.386;2024-03-23T01:00:28;9.70;99.90
2625;DHT22;1322;53.256;10.386;2024-03-23T01:02:54;9.60;99.90
2625;DHT22;1322;53.256;10.386;2024-03-23T01:05:19;9.70;99.90
2625;DHT22;1322;53.256;10.386;2024-03-23T01:07:45;9.70;99.90
2625;DHT22;1322;53.256;10.386;2024-03-23T01:10:11;9.70;99.90
2625;DHT22;1322;53.256;10.386;2024-03-23T01:12:36;9.70;99.90
2625;DHT22;1322;53.256;10.386;2024-03-23T01:15:02;9.70;99.90
2625;DHT22;1322;53.256;10.386;2024-03-23T01:17:28;9.70;99.90
2625;DHT22;1322;53.256;10.386;2024-03-23T01:19:53;9.70;99.90
2625;DHT22;1322;53.256;10.386;2024-03-23T01:22:19;9.70;99.90
2625;DHT22;1322;53.256;10.386;2024-03-23T01:24:44;9.70;99.90
2625;DHT22;1322;53.256;10.386;2024-03-23T01:27:10;9.70;99.90
2625;DHT22;1322;53.256;10.386;2024-03-23T01:29:36;9.80;99.90
2625;DHT22;1322;53.256;10.386;2024-03-23T01:32:01;9.80;99.90
2625;DHT22;1322;53.256;10.386;2024-03-23T01:34:27;9.80;99.90
2625;DHT22;1322;53.256;10.386;2024-03-23T01:36:53;9.80;99.90
2625;DHT22;1322;53.256;10.386;2024-03-23T01:39:19;9.80;99.90
2625;DHT22;1322;53.256;10.386;2024-03-23T01:41:44;9.80;99.90
2625;DHT22;1322;53.256;10.386;2024-03-23T01:44:10;9.80;99.90
2625;DHT22;1322;53.256;10.386;2024-03-23T01:46:37;9.80;99.90
2625;DHT22;1322;53.256;10.386;2024-03-23T01:49:04;9.80;99.90
2625;DHT22;1322;53.256;10.386;2024-03-23T01:51:30;9.80;99.90
2625;DHT22;1322;53.256;10.386;2024-03-23T01:53:56;9.80;99.90
2625;DHT22;1322;53.256;10.386;2024-03-23T01:56:22;9.70;99.90
2625;DHT22;1322;53.256;10.386;2024-03-23T01:58:47;9.70;99.90
2625;DHT22;1322;53.256;10.386;2024-03-23T02:01:13;9.70;99.90
2625;DHT22;1322;53.256;10.386;2024-03-23T02:03:39;9.70;99.90
2625;DHT22;1322;53.256;10.386;2024-03-23T02:06:05;9.70;99.90
2625;DHT22;1322;53.256;10.386;2024-03-23T02:08:32;9.70;99.90
2625;DHT22;1322;53.256;10.386;2024-03-23T02:10:58;9.70;99.90
2625;DHT22;1322;53.256;10.386;2024-03-23T02:13:24;9.70;99.90
2625;DHT22;1322;53.256;10.386;2024-03-23T02:15:50;9.70;99.90
2625;DHT22;1322;53.256;10.386;2024-03-23T02:18:15;9.70;99.90
2625;DHT22;1322;53.256;10.386;2024-03-23T02:20:41;9.70;99.90
2625;DHT22;1322;53.256;10.386;2024-03-23T02:23:16;9.60;99.90
2625;DHT22;1322;53.256;10.386;2024-03-23T02:25:42;9.60;99.90
2625;DHT22;1322;53.256;10.386;2024-03-23T02:28:07;9.60;99.90
2625;DHT22;1322;53.256;10.386;2024-03-23T02:30:33;9.60;99.90
2625;DHT22;1322;53.256;10.386;2024-03-23T02:32:59;9.60;99.90
2625;DHT22;1322;53.256;10.386;2024-03-23T02:35:24;9.50;99.90
2625;DHT22;1322;53.256;10.386;2024-03-23T02:37:50;9.50;99.90
2625;DHT22;1322;53.256;10.386;2024-03-23T02:40:16;9.50;99.90
2625;DHT22;1322;53.256;10.386;2024-03-23T02:42:42;9.50;99.90
2625;DHT22;1322;53.256;10.386;2024-03-23T02:45:08;9.50;99.90
2625;DHT22;1322;53.256;10.386;2024-03-23T02:47:33;9.50;99.90
2625;DHT22;1322;53.256;10.386;2024-03-23T02:49:59;9.40;99.90
2625;DHT22;1322;53.256;10.386;2024-03-23T02:52:25;9.40;99.90
2625;DHT22;1322;53.256;10.386;2024-03-23T02:54:50;9.40;99.90
2625;DHT22;1322;53.256;10.386;2024-03-23T02:57:16;9.40;99.90
2625;DHT22;1322;53.256;10.386;2024-03-23T02:59:42;9.30;99.90
2625;DHT22;1322;53.256;10.386;2024-03-23T03:02:07;9.30;99.90
2625;DHT22;1322;53.256;10.386;2024-03-23T03:04:33;9.20;99.90
2625;DHT22;1322;53.256;10.386;2024-03-23T03:07:00;9.20;99.90
2625;DHT22;1322;53.256;10.386;2024-03-23T03:09:26;9.20;99.90
2625;DHT22;1322;53.256;10.386;2024-03-23T03:11:51;9.20;99.90
2625;DHT22;1322;53.256;10.386;2024-03-23T03:14:17;9.20;99.90
2625;DHT22;1322;53.256;10.386;2024-03-23T03:16:43;9.10;99.90
2625;DHT22;1322;53.256;10.386;2024-03-23T03:19:08;9.10;99.90
2625;DHT22;1322;53.256;10.386;2024-03-23T03:21:36;9.10;99.90
2625;DHT22;1322;53.256;10.386;2024-03-23T03:24:01;9.10;99.90
2625;DHT22;1322;53.256;10.386;2024-03-23T03:26:27;9.20;99.90
2625;DHT22;1322;53.256;10.386;2024-03-23T03:28:53;9.20;99.90
2625;DHT22;1322;53.256;10.386;2024-03-23T03:31:18;9.10;99.90
2625;DHT22;1322;53.256;10.386;2024-03-23T03:33:44;9.10;99.90
2625;DHT22;1322;53.256;10.386;2024-03-23T03:36:10;9.10;99.90
2625;DHT22;1322;53.256;10.386;2024-03-23T03:38:36;9.10;99.90
2625;DHT22;1322;53.256;10.386;2024-03-23T03:41:02;9.10;99.90
2625;DHT22;1322;53.256;10.386;2024-03-23T03:43:28;9.10;99.90
2625;DHT22;1322;53.256;10.386;2024-03-23T03:45:54;9.10;99.90
2625;DHT22;1322;53.256;10.386;2024-03-23T03:48:20;9.00;99.90
2625;DHT22;1322;53.256;10.386;2024-03-23T03:50:45;9.00;99.90
2625;DHT22;1322;53.256;10.386;2024-03-23T03:53:11;9.00;99.90
2625;DHT22;1322;53.256;10.386;2024-03-23T03:55:37;9.00;99.90
2625;DHT22;1322;53.256;10.386;2024-03-23T03:58:03;9.00;99.90
2625;DHT22;1322;53.256;10.386;2024-03-23T04:00:30;9.00;99.90
2625;DHT22;1322;53.256;10.386;2024-03-23T04:02:55;9.00;99.90
2625;DHT22;1322;53.256;10.386;2024-03-23T04:05:24;9.00;99.90
2625;DHT22;1322;53.256;10.386;2024-03-23T04:07:50;9.00;99.90
2625;DHT22;1322;53.256;10.386;2024-03-23T04:10:15;9.00;99.90
2625;DHT22;1322;53.256;10.386;2024-03-23T04:12:43;9.00;99.90
2625;DHT22;1322;53.256;10.386;2024-03-23T04:15:08;9.00;99.90
2625;DHT22;1322;53.256;10.386;2024-03-23T04:17:34;9.00;99.90
2625;DHT22;1322;53.256;10.386;2024-03-23T04:20:01;9.00;99.90
2625;DHT22;1322;53.256;10.386;2024-03-23T04:22:28;9.00;99.90
2625;DHT22;1322;53.256;10.386;2024-03-23T04:24:54;9.00;99.90
2625;DHT22;1322;53.256;10.386;2024-03-23T04:27:19;9.00;99.90
2625;DHT22;1322;53.256;10.386;2024-03-23T04:29:49;9.00;99.90
2625;DHT22;1322;53.256;10.386;2024-03-23T04:32:15;8.90;99.90
2625;DHT22;1322;53.256;10.386;2024-03-23T04:34:41;8.90;99.90
2625;DHT22;1322;53.256;10.386;2024-03-23T04:37:07;8.90;99.90
2625;DHT22;1322;53.256;10.386;2024-03-23T04:39:33;9.00;99.90
2625;DHT22;1322;53.256;10.386;2024-03-23T04:41:58;8.90;99.90
2625;DHT22;1322;53.256;10.386;2024-03-23T04:44:25;8.90;99.90
2625;DHT22;1322;53.256;10.386;2024-03-23T04:46:51;8.90;99.90
2625;DHT22;1322;53.256;10.386;2024-03-23T04:49:16;8.90;99.90
2625;DHT22;1322;53.256;10.386;2024-03-23T04:51:42;8.90;99.90
2625;DHT22;1322;53.256;10.386;2024-03-23T04:54:11;8.90;99.90
2625;DHT22;1322;53.256;10.386;2024-03-23T04:56:37;8.90;99.90
2625;DHT22;1322;53.256;10.386;2024-03-23T04:59:03;8.80;99.90
2625;DHT22;1322;53.256;10.386;2024-03-23T05:01:30;8.80;99.90
2625;DHT22;1322;53.256;10.386;2024-03-23T05:03:56;8.80;99.90
2625;DHT22;1322;53.256;10.386;2024-03-23T05:06:23;8.80;99.90
2625;DHT22;1322;53.256;10.386;2024-03-23T05:08:48;8.80;99.90
2625;DHT22;1322;53.256;10.386;2024-03-23T05:11:15;8.80;99.90
2625;DHT22;1322;53.256;10.386;2024-03-23T05:13:41;8.80;99.90
2625;DHT22;1322;53.256;10.386;2024-03-23T05:16:07;8.80;99.90
2625;DHT22;1322;53.256;10.386;2024-03-23T05:18:34;8.80;99.90
2625;DHT22;1322;53.256;10.386;2024-03-23T05:21:00;8.80;99.90
2625;DHT22;1322;53.256;10.386;2024-03-23T05:23:26;8.80;99.90
2625;DHT22;1322;53.256;10.386;2024-03-23T05:25:52;8.80;99.90
2625;DHT22;1322;53.256;10.386;2024-03-23T05:28:18;8.80;99.90
2625;DHT22;1322;53.256;10.386;2024-03-23T05:30:49;8.80;99.90
2625;DHT22;1322;53.256;10.386;2024-03-23T05:33:15;8.80;99.90
2625;DHT22;1322;53.256;10.386;2024-03-23T05:35:40;8.80;99.90
2625;DHT22;1322;53.256;10.386;2024-03-23T05:38:06;8.80;99.90
2625;DHT22;1322;53.256;10.386;2024-03-23T05:40:31;8.80;99.90
2625;DHT22;1322;53.256;10.386;2024-03-23T05:42:57;8.80;99.90
2625;DHT22;1322;53.256;10.386;2024-03-23T05:45:23;8.80;99.90
2625;DHT22;1322;53.256;10.386;2024-03-23T05:47:49;8.80;99.90
2625;DHT22;1322;53.256;10.386;2024-03-23T05:50:14;8.90;99.90
2625;DHT22;1322;53.256;10.386;2024-03-23T05:52:40;8.90;99.90
2625;DHT22;1322;53.256;10.386;2024-03-23T05:55:06;9.00;99.90
2625;DHT22;1322;53.256;10.386;2024-03-23T05:57:32;9.00;99.90
2625;DHT22;1322;53.256;10.386;2024-03-23T05:59:58;9.00;99.90
2625;DHT22;1322;53.256;10.386;2024-03-23T06:02:24;9.10;99.90
2625;DHT22;1322;53.256;10.386;2024-03-23T06:04:49;9.10;99.90
2625;DHT22;1322;53.256;10.386;2024-03-23T06:07:15;9.10;99.90
2625;DHT22;1322;53.256;10.386;2024-03-23T06:09:41;9.20;99.90
2625;DHT22;1322;53.256;10.386;2024-03-23T06:12:07;9.20;99.90
2625;DHT22;1322;53.256;10.386;2024-03-23T06:14:34;9.20;99.90
2625;DHT22;1322;53.256;10.386;2024-03-23T06:17:00;9.30;99.90
2625;DHT22;1322;53.256;10.386;2024-03-23T06:19:27;9.30;99.90
2625;DHT22;1322;53.256;10.386;2024-03-23T06:21:53;9.40;99.90
2625;DHT22;1322;53.256;10.386;2024-03-23T06:24:22;9.40;99.90
2625;DHT22;1322;53.256;10.386;2024-03-23T06:26:47;9.50;99.90
2625;DHT22;1322;53.256;10.386;2024-03-23T06:29:13;9.50;99.90
2625;DHT22;1322;53.256;10.386;2024-03-23T06:31:39;9.50;99.90
2625;DHT22;1322;53.256;10.386;2024-03-23T06:34:04;9.50;99.90
2625;DHT22;1322;53.256;10.386;2024-03-23T06:36:30;9.60;99.90
2625;DHT22;1322;53.256;10.386;2024-03-23T06:38:56;9.60;99.90
2625;DHT22;1322;53.256;10.386;2024-03-23T06:41:22;9.70;99.90
2625;DHT22;1322;53.256;10.386;2024-03-23T06:43:48;9.70;99.90
2625;DHT22;1322;53.256;10.386;2024-03-23T06:46:13;9.70;99.90
2625;DHT22;1322;53.256;10.386;2024-03-23T06:48:39;9.70;99.90
2625;DHT22;1322;53.256;10.386;2024-03-23T06:51:05;9.80;99.90
2625;DHT22;1322;53.256;10.386;2024-03-23T06:53:32;9.80;99.90
2625;DHT22;1322;53.256;10.386;2024-03-23T06:55:57;9.90;99.90
2625;DHT22;1322;53.256;10.386;2024-03-23T06:58:24;9.90;99.90
2625;DHT22;1322;53.256;10.386;2024-03-23T07:00:50;10.00;99.90
2625;DHT22;1322;53.256;10.386;2024-03-23T07:03:19;10.10;99.90
2625;DHT22;1322;53.256;10.386;2024-03-23T07:05:45;10.20;99.90
2625;DHT22;1322;53.256;10.386;2024-03-23T07:08:11;10.40;99.90
2625;DHT22;1322;53.256;10.386;2024-03-23T07:10:40;10.70;99.90
2625;DHT22;1322;53.256;10.386;2024-03-23T07:13:05;10.90;99.90
2625;DHT22;1322;53.256;10.386;2024-03-23T07:15:31;11.10;99.90
2625;DHT22;1322;53.256;10.386;2024-03-23T07:17:57;11.20;99.90
2625;DHT22;1322;53.256;10.386;2024-03-23T07:20:22;11.10;99.90
2625;DHT22;1322;53.256;10.386;2024-03-23T07:22:48;11.10;99.90
2625;DHT22;1322;53.256;10.386;2024-03-23T07:25:14;11.10;99.90
2625;DHT22;1322;53.256;10.386;2024-03-23T07:27:40;10.90;99.90
2625;DHT22;1322;53.256;10.386;2024-03-23T07:30:06;10.90;99.90
2625;DHT22;1322;53.256;10.386;2024-03-23T07:32:32;10.90;99.90
2625;DHT22;1322;53.256;10.386;2024-03-23T07:34:57;11.10;99.90
2625;DHT22;1322;53.256;10.386;2024-03-23T07:37:23;11.10;99.90
2625;DHT22;1322;53.256;10.386;2024-03-23T07:39:48;11.10;99.90
2625;DHT22;1322;53.256;10.386;2024-03-23T07:42:14;11.20;99.90
2625;DHT22;1322;53.256;10.386;2024-03-23T07:44:40;11.40;99.90
2625;DHT22;1322;53.256;10.386;2024-03-23T07:47:05;11.40;99.90
2625;DHT22;1322;53.256;10.386;2024-03-23T07:49:31;11.30;99.90
2625;DHT22;1322;53.256;10.386;2024-03-23T07:51:56;11.40;99.90
2625;DHT22;1322;53.256;10.386;2024-03-23T07:54:22;11.40;99.90
2625;DHT22;1322;53.256;10.386;2024-03-23T07:56:48;11.30;99.90
2625;DHT22;1322;53.256;10.386;2024-03-23T07:59:13;11.20;99.90
2625;DHT22;1322;53.256;10.386;2024-03-23T08:01:39;11.10;99.90
2625;DHT22;1322;53.256;10.386;2024-03-23T08:04:06;11.00;99.90
2625;DHT22;1322;53.256;10.386;2024-03-23T08:06:31;10.90;99.90
2625;DHT22;1322;53.256;10.386;2024-03-23T08:08:57;10.80;99.90
2625;DHT22;1322;53.256;10.386;2024-03-23T08:11:30;10.80;99.90
2625;DHT22;1322;53.256;10.386;2024-03-23T08:13:56;10.90;99.90
2625;DHT22;1322;53.256;10.386;2024-03-23T08:16:22;10.80;99.90
2625;DHT22;1322;53.256;10.386;2024-03-23T08:18:48;10.80;99.90
2625;DHT22;1322;53.256;10.386;2024-03-23T08:21:14;10.80;99.90
2625;DHT22;1322;53.256;10.386;2024-03-23T08:23:40;10.90;99.90
2625;DHT22;1322;53.256;10.386;2024-03-23T08:26:10;10.90;99.90
2625;DHT22;1322;53.256;10.386;2024-03-23T08:28:36;10.90;99.90
2625;DHT22;1322;53.256;10.386;2024-03-23T08:31:07;11.10;99.90
2625;DHT22;1322;53.256;10.386;2024-03-23T08:33:33;11.30;99.90
2625;DHT22;1322;53.256;10.386;2024-03-23T08:36:01;11.30;99.90
2625;DHT22;1322;53.256;10.386;2024-03-23T08:38:27;11.50;99.90
2625;DHT22;1322;53.256;10.386;2024-03-23T08:40:57;11.60;99.90
2625;DHT22;1322;53.256;10.386;2024-03-23T08:43:23;11.40;99.90
2625;DHT22;1322;53.256;10.386;2024-03-23T08:45:48;11.60;99.90
2625;DHT22;1322;53.256;10.386;2024-03-23T08:48:14;11.50;99.90
2625;DHT22;1322;53.256;10.386;2024-03-23T08:50:40;11.50;99.90
2625;DHT22;1322;53.256;10.386;2024-03-23T08:53:05;11.50;99.90
2625;DHT22;1322;53.256;10.386;2024-03-23T08:55:31;11.60;99.90
2625;DHT22;1322;53.256;10.386;2024-03-23T08:57:57;11.70;99.90
2625;DHT22;1322;53.256;10.386;2024-03-23T09:00:22;11.70;99.90
2625;DHT22;1322;53.256;10.386;2024-03-23T09:02:48;11.80;99.90
2625;DHT22;1322;53.256;10.386;2024-03-23T09:05:14;11.80;99.90
2625;DHT22;1322;53.256;10.386;2024-03-23T09:07:39;11.70;99.90
2625;DHT22;1322;53.256;10.386;2024-03-23T09:10:05;11.30;99.90
2625;DHT22;1322;53.256;10.386;2024-03-23T09:12:31;11.20;99.90
2625;DHT22;1322;53.256;10.386;2024-03-23T09:14:56;11.00;99.90
2625;DHT22;1322;53.256;10.386;2024-03-23T09:17:22;11.20;99.90
2625;DHT22;1322;53.256;10.386;2024-03-23T09:19:47;11.60;99.90
2625;DHT22;1322;53.256;10.386;2024-03-23T09:22:13;11.90;99.90
2625;DHT22;1322;53.256;10.386;2024-03-23T09:24:39;12.10;99.90
2625;DHT22;1322;53.256;10.386;2024-03-23T09:27:05;12.20;99.90
2625;DHT22;1322;53.256;10.386;2024-03-23T09:29:30;12.20;99.90
2625;DHT22;1322;53.256;10.386;2024-03-23T09:31:56;12.30;99.90
2625;DHT22;1322;53.256;10.386;2024-03-23T09:34:22;12.20;99.90
2625;DHT22;1322;53.256;10.386;2024-03-23T09:36:51;11.90;99.90
2625;DHT22;1322;53.256;10.386;2024-03-23T09:39:17;11.90;99.90
2625;DHT22;1322;53.256;10.386;2024-03-23T09:41:43;12.00;99.90
2625;DHT22;1322;53.256;10.386;2024-03-23T09:44:09;12.00;99.90
2625;DHT22;1322;53.256;10.386;2024-03-23T09:46:34;11.90;99.90
2625;DHT22;1322;53.256;10.386;2024-03-23T09:49:02;11.70;99.90
2625;DHT22;1322;53.256;10.386;2024-03-23T09:51:32;11.80;99.90
2625;DHT22;1322;53.256;10.386;2024-03-23T09:53:57;11.60;99.90
2625;DHT22;1322;53.256;10.386;2024-03-23T09:56:23;11.40;99.90
2625;DHT22;1322;53.256;10.386;2024-03-23T09:58:51;11.40;99.90
2625;DHT22;1322;53.256;10.386;2024-03-23T10:01:17;11.70;99.90
2625;DHT22;1322;53.256;10.386;2024-03-23T10:03:44;11.90;99.90
2625;DHT22;1322;53.256;10.386;2024-03-23T10:06:10;12.00;99.90
2625;DHT22;1322;53.256;10.386;2024-03-23T10:08:36;12.20;99.90
2625;DHT22;1322;53.256;10.386;2024-03-23T10:11:14;12.30;99.90
2625;DHT22;1322;53.256;10.386;2024-03-23T10:13:42;12.60;99.90
2625;DHT22;1322;53.256;10.386;2024-03-23T10:16:09;12.70;99.90
2625;DHT22;1322;53.256;10.386;2024-03-23T10:18:39;12.90;99.90
2625;DHT22;1322;53.256;10.386;2024-03-23T10:21:09;13.10;99.90
2625;DHT22;1322;53.256;10.386;2024-03-23T10:23:37;13.30;99.90
2625;DHT22;1322;53.256;10.386;2024-03-23T10:26:23;13.50;99.90
2625;DHT22;1322;53.256;10.386;2024-03-23T10:31:20;13.50;99.90
2625;DHT22;1322;53.256;10.386;2024-03-23T10:33:49;13.30;99.90
2625;DHT22;1322;53.256;10.386;2024-03-23T10:36:16;13.00;99.90
2625;DHT22;1322;53.256;10.386;2024-03-23T10:38:43;12.90;99.90
2625;DHT22;1322;53.256;10.386;2024-03-23T10:41:10;12.80;99.90
2625;DHT22;1322;53.256;10.386;2024-03-23T10:43:36;12.90;99.90
2625;DHT22;1322;53.256;10.386;2024-03-23T10:46:03;12.90;99.90
2625;DHT22;1322;53.256;10.386;2024-03-23T10:48:29;12.90;99.90
2625;DHT22;1322;53.256;10.386;2024-03-23T10:50:54;12.80;99.90
2625;DHT22;1322;53.256;10.386;2024-03-23T10:53:22;12.40;99.90
2625;DHT22;1322;53.256;10.386;2024-03-23T10:55:50;12.10;99.90
2625;DHT22;1322;53.256;10.386;2024-03-23T10:58:19;12.00;99.90
2625;DHT22;1322;53.256;10.386;2024-03-23T11:00:47;12.00;99.90
2625;DHT22;1322;53.256;10.386;2024-03-23T11:03:45;11.90;99.90
2625;DHT22;1322;53.256;10.386;2024-03-23T11:06:34;11.90;99.90
2625;DHT22;1322;53.256;10.386;2024-03-23T11:09:00;11.90;99.90
2625;DHT22;1322;53.256;10.386;2024-03-23T11:11:26;12.00;99.90
2625;DHT22;1322;53.256;10.386;2024-03-23T11:13:53;12.10;99.90
2625;DHT22;1322;53.256;10.386;2024-03-23T11:16:22;12.40;99.90
2625;DHT22;1322;53.256;10.386;2024-03-23T11:19:35;12.40;99.90
2625;DHT22;1322;53.256;10.386;2024-03-23T11:22:04;12.50;99.90
2625;DHT22;1322;53.256;10.386;2024-03-23T11:24:33;12.60;99.90
2625;DHT22;1322;53.256;10.386;2024-03-23T11:27:00;12.90;99.90
2625;DHT22;1322;53.256;10.386;2024-03-23T11:29:29;13.30;99.90
2625;DHT22;1322;53.256;10.386;2024-03-23T11:31:55;13.60;99.90
2625;DHT22;1322;53.256;10.386;2024-03-23T11:34:22;13.70;99.90
2625;DHT22;1322;53.256;10.386;2024-03-23T11:36:48;13.70;99.90
2625;DHT22;1322;53.256;10.386;2024-03-23T11:39:17;13.50;99.90
2625;DHT22;1322;53.256;10.386;2024-03-23T11:41:49;13.00;99.90
2625;DHT22;1322;53.256;10.386;2024-03-23T11:44:23;12.20;99.90
2625;DHT22;1322;53.256;10.386;2024-03-23T11:46:49;11.60;99.90
2625;DHT22;1322;53.256;10.386;2024-03-23T11:49:28;11.20;99.90
2625;DHT22;1322;53.256;10.386;2024-03-23T11:51:55;11.00;99.90
2625;DHT22;1322;53.256;10.386;2024-03-23T11:54:22;10.60;99.90
2625;DHT22;1322;53.256;10.386;2024-03-23T11:57:06;10.20;99.90
2625;DHT22;1322;53.256;10.386;2024-03-23T11:59:37;10.10;99.90
2625;DHT22;1322;53.256;10.386;2024-03-23T12:02:10;10.20;99.90
2625;DHT22;1322;53.256;10.386;2024-03-23T12:04:37;10.30;99.90
2625;DHT22;1322;53.256;10.386;2024-03-23T12:07:19;10.50;99.90
2625;DHT22;1322;53.256;10.386;2024-03-23T12:10:04;10.70;99.90
2625;DHT22;1322;53.256;10.386;2024-03-23T12:12:30;10.80;99.90
2625;DHT22;1322;53.256;10.386;2024-03-23T12:15:04;10.90;99.90
2625;DHT22;1322;53.256;10.386;2024-03-23T12:17:31;11.00;99.90
2625;DHT22;1322;53.256;10.386;2024-03-23T12:19:57;11.20;99.90
2625;DHT22;1322;53.256;10.386;2024-03-23T12:22:24;11.30;99.90
2625;DHT22;1322;53.256;10.386;2024-03-23T12:24:50;11.40;99.90
2625;DHT22;1322;53.256;10.386;2024-03-23T12:27:15;11.60;99.90
2625;DHT22;1322;53.256;10.386;2024-03-23T12:29:42;11.70;99.90
2625;DHT22;1322;53.256;10.386;2024-03-23T12:32:09;12.00;99.90
2625;DHT22;1322;53.256;10.386;2024-03-23T12:34:34;12.00;99.90
2625;DHT22;1322;53.256;10.386;2024-03-23T12:37:00;11.90;99.90
2625;DHT22;1322;53.256;10.386;2024-03-23T12:39:27;12.00;99.90
2625;DHT22;1322;53.256;10.386;2024-03-23T12:41:52;12.10;99.90
2625;DHT22;1322;53.256;10.386;2024-03-23T12:44:18;12.20;99.90
2625;DHT22;1322;53.256;10.386;2024-03-23T12:46:44;12.40;99.90
2625;DHT22;1322;53.256;10.386;2024-03-23T12:49:11;12.50;99.90
2625;DHT22;1322;53.256;10.386;2024-03-23T12:51:36;12.40;99.90
2625;DHT22;1322;53.256;10.386;2024-03-23T12:54:02;12.20;99.90
2625;DHT22;1322;53.256;10.386;2024-03-23T12:56:28;12.10;99.90
2625;DHT22;1322;53.256;10.386;2024-03-23T12:58:54;11.90;99.90
2625;DHT22;1322;53.256;10.386;2024-03-23T13:01:22;12.00;99.90
2625;DHT22;1322;53.256;10.386;2024-03-23T13:03:48;12.20;99.90
2625;DHT22;1322;53.256;10.386;2024-03-23T13:06:15;12.10;99.90
2625;DHT22;1322;53.256;10.386;2024-03-23T13:08:40;12.10;99.90
2625;DHT22;1322;53.256;10.386;2024-03-23T13:11:07;12.20;99.90
2625;DHT22;1322;53.256;10.386;2024-03-23T13:13:34;12.20;99.90
2625;DHT22;1322;53.256;10.386;2024-03-23T13:16:00;12.10;99.90
2625;DHT22;1322;53.256;10.386;2024-03-23T13:18:26;11.80;99.90
2625;DHT22;1322;53.256;10.386;2024-03-23T13:20:52;11.70;99.90
2625;DHT22;1322;53.256;10.386;2024-03-23T13:23:17;11.40;99.90
2625;DHT22;1322;53.256;10.386;2024-03-23T13:25:53;11.00;99.90
2625;DHT22;1322;53.256;10.386;2024-03-23T13:28:22;10.60;99.90
2625;DHT22;1322;53.256;10.386;2024-03-23T13:30:55;10.50;99.90
2625;DHT22;1322;53.256;10.386;2024-03-23T13:33:21;10.30;99.90
2625;DHT22;1322;53.256;10.386;2024-03-23T13:35:53;10.20;99.90
2625;DHT22;1322;53.256;10.386;2024-03-23T13:38:20;9.80;99.90
2625;DHT22;1322;53.256;10.386;2024-03-23T13:40:56;9.70;99.90
2625;DHT22;1322;53.256;10.386;2024-03-23T13:43:23;9.60;99.90
2625;DHT22;1322;53.256;10.386;2024-03-23T13:45:51;9.50;99.90
2625;DHT22;1322;53.256;10.386;2024-03-23T13:48:19;9.50;99.90
2625;DHT22;1322;53.256;10.386;2024-03-23T13:50:45;9.30;99.90
2625;DHT22;1322;53.256;10.386;2024-03-23T13:53:13;8.90;99.90
2625;DHT22;1322;53.256;10.386;2024-03-23T13:55:46;8.80;99.90
2625;DHT22;1322;53.256;10.386;2024-03-23T13:58:13;9.00;99.90
2625;DHT22;1322;53.256;10.386;2024-03-23T14:00:38;9.20;99.90
2625;DHT22;1322;53.256;10.386;2024-03-23T14:03:04;9.60;99.90
2625;DHT22;1322;53.256;10.386;2024-03-23T14:05:31;9.70;99.90
2625;DHT22;1322;53.256;10.386;2024-03-23T14:07:56;9.30;99.90
2625;DHT22;1322;53.256;10.386;2024-03-23T14:10:22;9.10;99.90
2625;DHT22;1322;53.256;10.386;2024-03-23T14:12:47;8.80;99.90
2625;DHT22;1322;53.256;10.386;2024-03-23T14:15:13;8.50;99.90
2625;DHT22;1322;53.256;10.386;2024-03-23T14:17:41;8.30;99.90
2625;DHT22;1322;53.256;10.386;2024-03-23T14:20:07;8.10;99.90
2625;DHT22;1322;53.256;10.386;2024-03-23T14:22:36;8.00;99.90
2625;DHT22;1322;53.256;10.386;2024-03-23T14:25:02;7.90;99.90
2625;DHT22;1322;53.256;10.386;2024-03-23T14:27:28;8.00;99.90
2625;DHT22;1322;53.256;10.386;2024-03-23T14:29:54;8.00;99.90
2625;DHT22;1322;53.256;10.386;2024-03-23T14:32:21;8.00;99.90
2625;DHT22;1322;53.256;10.386;2024-03-23T14:34:47;8.10;99.90
2625;DHT22;1322;53.256;10.386;2024-03-23T14:37:13;8.30;99.90
2625;DHT22;1322;53.256;10.386;2024-03-23T14:39:41;8.30;99.90
2625;DHT22;1322;53.256;10.386;2024-03-23T14:42:07;8.40;99.90
2625;DHT22;1322;53.256;10.386;2024-03-23T14:44:34;8.40;99.90
2625;DHT22;1322;53.256;10.386;2024-03-23T14:46:59;8.70;99.90
2625;DHT22;1322;53.256;10.386;2024-03-23T14:49:25;9.00;99.90
2625;DHT22;1322;53.256;10.386;2024-03-23T14:51:51;9.20;99.90
2625;DHT22;1322;53.256;10.386;2024-03-23T14:54:17;9.30;99.90
2625;DHT22;1322;53.256;10.386;2024-03-23T14:56:42;9.40;99.90
2625;DHT22;1322;53.256;10.386;2024-03-23T14:59:08;9.50;99.90
2625;DHT22;1322;53.256;10.386;2024-03-23T15:01:34;9.50;99.90
2625;DHT22;1322;53.256;10.386;2024-03-23T15:04:00;9.60;99.90
2625;DHT22;1322;53.256;10.386;2024-03-23T15:06:25;9.80;99.90
2625;DHT22;1322;53.256;10.386;2024-03-23T15:08:51;9.90;99.90
2625;DHT22;1322;53.256;10.386;2024-03-23T15:11:17;10.00;99.90
2625;DHT22;1322;53.256;10.386;2024-03-23T15:13:44;10.00;99.90
2625;DHT22;1322;53.256;10.386;2024-03-23T15:16:10;9.90;99.90
2625;DHT22;1322;53.256;10.386;2024-03-23T15:18:36;9.80;99.90
2625;DHT22;1322;53.256;10.386;2024-03-23T15:21:03;9.80;99.90
2625;DHT22;1322;53.256;10.386;2024-03-23T15:23:31;9.60;99.90
2625;DHT22;1322;53.256;10.386;2024-03-23T15:26:01;9.60;99.90
2625;DHT22;1322;53.256;10.386;2024-03-23T15:28:28;9.60;99.90
2625;DHT22;1322;53.256;10.386;2024-03-23T15:31:12;9.60;99.90
2625;DHT22;1322;53.256;10.386;2024-03-23T15:33:38;9.60;99.90
2625;DHT22;1322;53.256;10.386;2024-03-23T15:36:05;9.50;99.90
2625;DHT22;1322;53.256;10.386;2024-03-23T15:38:34;9.30;99.90
2625;DHT22;1322;53.256;10.386;2024-03-23T15:41:00;9.30;99.90
2625;DHT22;1322;53.256;10.386;2024-03-23T15:43:26;9.30;99.90
2625;DHT22;1322;53.256;10.386;2024-03-23T15:48:20;9.20;99.90
2625;DHT22;1322;53.256;10.386;2024-03-23T15:51:13;9.20;99.90
2625;DHT22;1322;53.256;10.386;2024-03-23T15:53:39;9.10;99.90
2625;DHT22;1322;53.256;10.386;2024-03-23T15:56:05;9.10;99.90
2625;DHT22;1322;53.256;10.386;2024-03-23T15:58:32;9.10;99.90
2625;DHT22;1322;53.256;10.386;2024-03-23T16:01:09;9.20;99.90
2625;DHT22;1322;53.256;10.386;2024-03-23T16:03:36;9.30;99.90
2625;DHT22;1322;53.256;10.386;2024-03-23T16:06:06;9.40;99.90
2625;DHT22;1322;53.256;10.386;2024-03-23T16:08:35;9.30;99.90
2625;DHT22;1322;53.256;10.386;2024-03-23T16:11:01;9.30;99.90
2625;DHT22;1322;53.256;10.386;2024-03-23T16:13:27;9.50;99.90
2625;DHT22;1322;53.256;10.386;2024-03-23T16:15:56;9.60;99.90
2625;DHT22;1322;53.256;10.386;2024-03-23T16:18:23;9.40;99.90
2625;DHT22;1322;53.256;10.386;2024-03-23T16:21:07;9.30;99.90
2625;DHT22;1322;53.256;10.386;2024-03-23T16:23:37;9.30;99.90
2625;DHT22;1322;53.256;10.386;2024-03-23T16:26:10;9.30;99.90
2625;DHT22;1322;53.256;10.386;2024-03-23T16:28:38;9.10;99.90
2625;DHT22;1322;53.256;10.386;2024-03-23T16:31:04;9.10;99.90
2625;DHT22;1322;53.256;10.386;2024-03-23T16:33:32;9.10;99.90
2625;DHT22;1322;53.256;10.386;2024-03-23T16:36:02;9.10;99.90
2625;DHT22;1322;53.256;10.386;2024-03-23T16:38:30;9.10;99.90
2625;DHT22;1322;53.256;10.386;2024-03-23T16:41:02;9.00;99.90
2625;DHT22;1322;53.256;10.386;2024-03-23T16:43:30;8.80;99.90
2625;DHT22;1322;53.256;10.386;2024-03-23T16:45:58;8.20;99.90
2625;DHT22;1322;53.256;10.386;2024-03-23T16:48:25;7.80;99.90
2625;DHT22;1322;53.256;10.386;2024-03-23T16:50:51;7.70;99.90
2625;DHT22;1322;53.256;10.386;2024-03-23T16:53:17;7.60;99.90